createdAt,value
2018-04-16T00:01:55.554Z,67.59
2018-04-16T00:04:23.042Z,67.16
2018-04-16T00:06:50.402Z,68.11
2018-04-16T00:09:17.885Z,66.91
2018-04-16T00:11:45.594Z,67.67
2018-04-16T00:14:13.107Z,66.99
2018-04-16T00:16:40.552Z,68.22
2018-04-16T00:19:07.914Z,68.51
2018-04-16T00:21:35.326Z,70.23
2018-04-16T00:24:03.865Z,71.03
2018-04-16T00:26:31.257Z,71.92
2018-04-16T00:28:58.695Z,70.72
2018-04-16T00:31:31.652Z,71.97
2018-04-16T00:34:04.750Z,70.38
2018-04-16T00:36:37.901Z,69.26
2018-04-16T00:39:10.869Z,69.09
2018-04-16T00:41:43.843Z,70.82
2018-04-16T00:44:16.747Z,71.66
2018-04-16T00:46:49.828Z,71.56
2018-04-16T00:49:22.848Z,70.33
2018-04-16T00:51:55.962Z,71.90
2018-04-16T00:54:29.008Z,70.41
2018-04-16T00:57:02.052Z,70.59
2018-04-16T00:59:35.187Z,71.21
2018-04-16T01:02:08.174Z,69.60
2018-04-16T01:04:41.288Z,70.09
2018-04-16T01:07:14.936Z,69.06
2018-04-16T01:09:47.984Z,70.07
2018-04-16T01:12:20.924Z,71.04
2018-04-16T01:14:53.846Z,69.11
2018-04-16T01:17:26.771Z,70.41
2018-04-16T01:19:59.759Z,69.93
2018-04-16T01:22:32.791Z,69.88
2018-04-16T01:25:05.659Z,70.18
2018-04-16T01:27:38.696Z,70.15
2018-04-16T01:30:11.553Z,68.90
2018-04-16T01:32:44.468Z,70.46
2018-04-16T01:35:17.394Z,68.91
2018-04-16T01:37:50.451Z,70.25
2018-04-16T01:40:23.371Z,70.82
2018-04-16T01:42:56.231Z,69.25
2018-04-16T01:45:29.086Z,69.05
2018-04-16T02:01:28.644Z,73.11
2018-04-16T02:04:01.521Z,71.59
2018-04-16T02:20:02.853Z,72.19
2018-04-16T02:22:35.769Z,70.66
2018-04-16T02:25:08.667Z,71.18
2018-04-16T02:27:41.651Z,71.94
2018-04-16T02:30:14.672Z,73.92
2018-04-16T02:32:47.581Z,73.55
2018-04-16T02:35:20.535Z,74.06
2018-04-16T02:37:53.478Z,74.25
2018-04-16T02:40:26.553Z,73.62
2018-04-16T02:42:59.474Z,75.56
2018-04-16T02:45:32.632Z,76.36
2018-04-16T02:48:05.541Z,77.39
2018-04-16T02:50:41.038Z,77.17
2018-04-16T02:53:13.986Z,76.30
2018-04-16T02:55:46.845Z,77.63
2018-04-16T02:58:19.816Z,77.19
2018-04-16T03:00:52.735Z,76.35
2018-04-16T03:03:25.682Z,76.79
2018-04-16T03:05:59.458Z,75.22
2018-04-16T03:08:32.428Z,75.11
2018-04-16T03:11:05.320Z,74.20
2018-04-16T03:13:38.236Z,74.93
2018-04-16T03:16:11.091Z,75.86
2018-04-16T03:18:43.968Z,75.56
2018-04-16T03:21:16.965Z,76.32
2018-04-16T03:23:49.851Z,78.08
2018-04-16T03:26:22.741Z,76.40
2018-04-16T03:28:55.606Z,77.08
2018-04-16T03:34:24.626Z,78.23
2018-04-16T03:36:57.606Z,78.02
2018-04-16T03:39:30.458Z,77.03
2018-04-16T03:42:03.465Z,77.32
2018-04-16T03:44:36.234Z,77.92
2018-04-16T03:47:09.095Z,78.21
2018-04-16T03:49:41.891Z,78.85
2018-04-16T03:52:14.873Z,78.62
2018-04-16T03:54:42.585Z,78.75
2018-04-16T03:57:09.973Z,79.66
2018-04-16T03:59:37.333Z,79.45
2018-04-16T04:02:04.773Z,80.26
2018-04-16T04:04:32.148Z,80.09
2018-04-16T04:06:59.532Z,78.98
2018-04-16T04:09:26.917Z,80.47
2018-04-16T04:11:54.327Z,81.11
2018-04-16T04:14:21.733Z,81.66
2018-04-16T04:16:49.116Z,79.49
2018-04-16T04:19:16.540Z,80.75
2018-04-16T04:21:43.878Z,80.57
2018-04-16T04:24:23.048Z,80.38
2018-04-16T04:27:02.039Z,80.70
2018-04-16T04:42:59.734Z,80.49
2018-04-16T04:45:27.115Z,79.59
2018-04-16T04:47:54.492Z,80.59
2018-04-16T04:50:21.872Z,80.57
2018-04-16T04:52:49.320Z,80.66
2018-04-16T04:55:16.719Z,80.55
2018-04-16T04:57:44.089Z,80.16
2018-04-16T05:00:11.489Z,80.12
2018-04-16T05:02:38.881Z,79.70
2018-04-16T05:05:06.260Z,79.98
2018-04-16T05:07:33.648Z,78.05
2018-04-16T05:10:01.038Z,78.23
2018-04-16T05:12:28.488Z,78.65
2018-04-16T05:14:55.863Z,78.88
2018-04-16T05:17:23.264Z,78.74
2018-04-16T05:19:50.658Z,79.53
2018-04-16T05:22:18.037Z,79.40
2018-04-16T05:24:45.419Z,79.12
2018-04-16T05:27:12.811Z,80.72
2018-04-16T05:29:40.198Z,81.21
2018-04-16T05:32:07.572Z,80.84
2018-04-16T05:34:34.963Z,80.76
2018-04-16T05:37:02.349Z,80.04
2018-04-16T05:39:29.718Z,79.94
2018-04-16T05:41:57.123Z,79.88
2018-04-16T05:44:24.859Z,79.98
2018-04-16T05:46:52.275Z,80.04
2018-04-16T05:49:19.669Z,79.06
2018-04-16T05:51:47.046Z,78.75
2018-04-16T05:54:14.460Z,78.17
2018-04-16T05:56:41.847Z,78.66
2018-04-16T05:59:09.248Z,77.31
2018-04-16T06:01:40.055Z,77.20
2018-04-16T06:04:07.699Z,77.41
2018-04-16T06:06:35.934Z,77.11
2018-04-16T06:09:03.274Z,77.35
2018-04-16T06:11:30.703Z,75.85
2018-04-16T06:13:58.103Z,74.84
2018-04-16T06:16:25.701Z,75.75
2018-04-16T06:18:53.126Z,76.23
2018-04-16T06:21:24.720Z,75.82
2018-04-16T06:23:52.163Z,75.29
2018-04-16T06:26:19.555Z,75.09
2018-04-16T06:28:46.936Z,74.77
2018-04-16T06:31:14.323Z,74.79
2018-04-16T06:33:41.695Z,74.12
2018-04-16T06:36:09.088Z,73.38
2018-04-16T06:38:36.459Z,72.74
2018-04-16T06:41:03.863Z,71.88
2018-04-16T06:43:31.252Z,72.02
2018-04-16T06:45:58.615Z,72.43
2018-04-16T06:48:25.998Z,71.49
2018-04-16T06:50:53.364Z,72.58
2018-04-16T06:53:20.989Z,72.48
2018-04-16T06:55:48.388Z,72.39
2018-04-16T06:58:15.789Z,72.10
2018-04-16T07:00:43.303Z,72.43
2018-04-16T07:03:17.499Z,72.88
2018-04-16T07:05:51.334Z,73.18
2018-04-16T07:08:19.818Z,71.43
2018-04-16T07:10:47.227Z,71.46
2018-04-16T07:13:14.627Z,70.26
2018-04-16T07:15:42.047Z,66.49
2018-04-16T07:18:09.439Z,67.94
2018-04-16T07:20:36.883Z,67.78
2018-04-16T07:23:04.240Z,66.29
2018-04-16T07:25:31.629Z,66.20
2018-04-16T07:27:58.998Z,66.42
2018-04-16T07:30:26.412Z,67.49
2018-04-16T07:32:53.779Z,67.19
2018-04-16T07:35:21.163Z,66.32
2018-04-16T07:37:48.572Z,64.71
2018-04-16T07:40:15.959Z,64.41
2018-04-16T07:42:43.348Z,64.31
2018-04-16T07:45:10.751Z,62.35
2018-04-16T07:47:38.144Z,64.04
2018-04-16T07:50:05.520Z,64.36
2018-04-16T07:52:32.985Z,63.32
2018-04-16T07:55:00.372Z,64.79
2018-04-16T07:57:27.774Z,64.33
2018-04-16T07:59:55.152Z,64.04
2018-04-16T08:02:22.560Z,64.26
2018-04-16T08:04:49.963Z,62.95
2018-04-16T08:07:17.411Z,63.24
2018-04-16T08:09:44.776Z,62.42
2018-04-16T08:12:12.155Z,62.68
2018-04-16T08:14:39.536Z,62.35
2018-04-16T08:17:06.920Z,61.32
2018-04-16T08:19:34.307Z,60.21
2018-04-16T08:22:01.702Z,61.83
2018-04-16T08:24:29.079Z,61.67
2018-04-16T08:26:56.484Z,61.10
2018-04-16T08:29:23.858Z,60.94
2018-04-16T08:31:51.257Z,59.73
2018-04-16T08:34:18.640Z,59.61
2018-04-16T08:36:46.022Z,60.21
2018-04-16T08:39:13.406Z,59.75
2018-04-16T08:41:40.780Z,59.42
2018-04-16T08:44:08.159Z,58.16
2018-04-16T08:46:35.564Z,58.13
2018-04-16T08:49:02.970Z,58.22
2018-04-16T08:51:30.425Z,58.53
2018-04-16T08:53:57.784Z,57.85
2018-04-16T08:56:25.175Z,57.81
2018-04-16T08:58:52.604Z,57.30
2018-04-16T09:01:20.136Z,56.00
2018-04-16T09:03:47.508Z,55.52
2018-04-16T09:06:15.004Z,55.36
2018-04-16T09:08:42.476Z,55.12
2018-04-16T09:11:09.851Z,55.28
2018-04-16T09:13:37.247Z,55.68
2018-04-16T09:16:04.631Z,55.13
2018-04-16T09:18:32.007Z,55.05
2018-04-16T09:20:59.393Z,55.48
2018-04-16T09:23:26.854Z,55.57
2018-04-16T09:25:54.227Z,55.51
2018-04-16T09:28:21.608Z,54.40
2018-04-16T09:30:49.040Z,54.89
2018-04-16T09:33:16.421Z,54.11
2018-04-16T09:35:43.796Z,53.19
2018-04-16T09:38:11.196Z,53.50
2018-04-16T09:40:38.697Z,53.33
2018-04-16T09:43:06.323Z,52.12
2018-04-16T09:45:33.840Z,53.06
2018-04-16T09:48:01.372Z,52.63
2018-04-16T09:50:28.779Z,51.37
2018-04-16T09:52:56.194Z,51.78
2018-04-16T09:55:23.935Z,50.77
2018-04-16T09:57:56.420Z,51.28
2018-04-16T10:00:30.213Z,50.64
2018-04-16T10:03:08.654Z,50.50
2018-04-16T10:05:36.047Z,49.08
2018-04-16T10:08:03.431Z,47.87
2018-04-16T10:10:30.992Z,48.72
2018-04-16T10:12:58.507Z,48.12
2018-04-16T10:15:25.896Z,46.88
2018-04-16T10:17:53.291Z,47.57
2018-04-16T10:20:20.672Z,47.35
2018-04-16T10:22:48.140Z,47.82
2018-04-16T10:25:15.622Z,46.92
2018-04-16T10:27:43.015Z,48.05
2018-04-16T10:30:10.454Z,46.21
2018-04-16T10:32:37.837Z,46.22
2018-04-16T10:35:05.216Z,44.35
2018-04-16T10:37:32.663Z,46.54
2018-04-16T10:40:00.036Z,45.34
2018-04-16T10:42:27.415Z,43.04
2018-04-16T10:44:55.060Z,41.73
2018-04-16T10:47:22.451Z,42.74
2018-04-16T10:49:49.851Z,43.72
2018-04-16T10:52:17.274Z,43.38
2018-04-16T10:54:45.544Z,42.85
2018-04-16T10:57:13.028Z,40.12
2018-04-16T10:59:40.440Z,41.38
2018-04-16T11:02:15.680Z,42.19
2018-04-16T11:04:51.854Z,41.31
2018-04-16T11:07:20.752Z,39.71
2018-04-16T11:09:48.162Z,39.10
2018-04-16T11:12:16.247Z,40.98
2018-04-16T11:14:44.021Z,40.45
2018-04-16T11:17:11.492Z,38.40
2018-04-16T11:19:38.998Z,40.57
2018-04-16T11:22:06.413Z,41.59
2018-04-16T11:24:33.897Z,40.96
2018-04-16T11:27:01.332Z,40.84
2018-04-16T11:29:29.570Z,39.85
2018-04-16T11:31:56.976Z,40.16
2018-04-16T11:34:24.424Z,38.48
2018-04-16T11:36:51.847Z,37.71
2018-04-16T11:39:19.242Z,37.57
2018-04-16T11:41:46.628Z,38.13
2018-04-16T11:44:14.008Z,38.94
2018-04-16T11:46:41.415Z,39.68
2018-04-16T11:49:08.839Z,39.83
2018-04-16T11:51:36.433Z,38.30
2018-04-16T11:54:03.802Z,39.71
2018-04-16T11:56:31.343Z,38.25
2018-04-16T11:58:58.824Z,37.98
2018-04-16T12:01:27.068Z,38.44
2018-04-16T12:03:54.464Z,39.94
2018-04-16T12:06:21.887Z,38.93
2018-04-16T12:08:49.281Z,38.33
2018-04-16T12:11:16.679Z,37.86
2018-04-16T12:13:44.136Z,36.42
2018-04-16T12:16:11.544Z,35.58
2018-04-16T12:18:38.925Z,36.00
2018-04-16T12:21:06.477Z,37.78
2018-04-16T12:23:33.881Z,33.53
2018-04-16T12:26:01.655Z,34.22
2018-04-16T12:28:29.049Z,31.76
2018-04-16T12:30:56.478Z,32.58
2018-04-16T12:33:23.868Z,31.04
2018-04-16T12:35:51.259Z,29.79
2018-04-16T12:38:18.662Z,31.43
2018-04-16T12:40:46.079Z,30.69
2018-04-16T12:43:13.505Z,26.17
2018-04-16T12:45:40.889Z,26.61
2018-04-16T12:48:08.333Z,28.57
2018-04-16T12:50:35.648Z,30.86
2018-04-16T12:53:03.070Z,30.32
2018-04-16T12:55:30.631Z,30.34
2018-04-16T12:57:58.031Z,29.96
2018-04-16T13:00:25.439Z,28.52
2018-04-16T13:02:52.840Z,26.33
2018-04-16T13:05:20.241Z,24.64
2018-04-16T13:07:47.737Z,25.45
2018-04-16T13:10:15.939Z,25.60
2018-04-16T13:12:43.410Z,24.82
2018-04-16T13:15:10.827Z,24.22
2018-04-16T13:17:38.239Z,23.10
2018-04-16T13:20:05.670Z,23.06
2018-04-16T13:22:33.048Z,25.36
2018-04-16T13:25:00.533Z,26.20
2018-04-16T13:27:28.205Z,27.48
2018-04-16T13:29:55.647Z,28.91
2018-04-16T13:32:23.024Z,29.66
2018-04-16T13:34:50.424Z,29.83
2018-04-16T13:37:17.837Z,28.76
2018-04-16T13:39:45.239Z,26.63
2018-04-16T13:42:12.630Z,25.28
2018-04-16T13:44:40.036Z,23.93
2018-04-16T13:47:07.448Z,23.79
2018-04-16T13:49:34.835Z,24.42
2018-04-16T13:52:02.207Z,23.78
2018-04-16T13:54:29.597Z,24.45
2018-04-16T13:56:56.974Z,24.46
2018-04-16T13:59:24.373Z,23.48
2018-04-16T14:01:51.916Z,23.77
2018-04-16T14:04:19.425Z,22.40
2018-04-16T14:06:46.848Z,22.34
2018-04-16T14:09:14.285Z,22.71
2018-04-16T14:11:41.659Z,23.44
2018-04-16T14:14:09.171Z,24.25
2018-04-16T14:16:36.558Z,24.03
2018-04-16T14:19:03.928Z,23.79
2018-04-16T14:21:31.334Z,22.95
2018-04-16T14:24:04.144Z,23.06
2018-04-16T14:26:31.605Z,21.66
2018-04-16T14:28:59.055Z,21.89
2018-04-16T14:31:26.440Z,21.20
2018-04-16T14:33:53.863Z,22.00
2018-04-16T14:36:22.672Z,22.17
2018-04-16T14:38:50.036Z,24.64
2018-04-16T14:41:17.437Z,25.48
2018-04-16T14:43:44.821Z,26.92
2018-04-16T14:46:12.195Z,26.67
2018-04-16T14:48:39.607Z,26.76
2018-04-16T14:51:06.988Z,26.05
2018-04-16T14:53:34.452Z,23.11
2018-04-16T14:56:02.197Z,21.98
2018-04-16T14:58:29.671Z,20.53
2018-04-16T15:00:57.094Z,21.29
2018-04-16T15:03:24.480Z,21.06
2018-04-16T15:05:51.865Z,21.78
2018-04-16T15:08:19.327Z,20.73
2018-04-16T15:10:46.705Z,20.78
2018-04-16T15:13:14.237Z,21.04
2018-04-16T15:15:41.645Z,21.36
2018-04-16T15:18:09.031Z,21.09
2018-04-16T15:20:36.524Z,20.87
2018-04-16T15:23:11.376Z,20.82
2018-04-16T15:25:45.950Z,20.98
2018-04-16T15:28:13.652Z,21.21
2018-04-16T15:30:41.165Z,20.10
2018-04-16T15:33:08.589Z,20.39
2018-04-16T15:35:36.017Z,20.34
2018-04-16T15:38:03.611Z,20.25
2018-04-16T15:40:31.471Z,19.35
2018-04-16T15:42:58.835Z,18.74
2018-04-16T15:45:26.862Z,18.98
2018-04-16T15:47:54.254Z,19.32
2018-04-16T15:50:21.697Z,19.49
2018-04-16T15:52:49.208Z,20.31
2018-04-16T15:55:16.587Z,19.53
2018-04-16T15:57:44.061Z,20.16
2018-04-16T16:00:11.450Z,19.19
2018-04-16T16:02:38.841Z,19.52
2018-04-16T16:05:06.239Z,20.05
2018-04-16T16:07:33.697Z,19.10
2018-04-16T16:10:01.192Z,18.91
2018-04-16T16:12:28.609Z,18.60
2018-04-16T16:14:56.106Z,19.45
2018-04-16T16:17:23.488Z,19.61
2018-04-16T16:19:50.880Z,20.05
2018-04-16T16:22:18.629Z,19.58
2018-04-16T16:24:46.090Z,20.18
2018-04-16T16:27:13.463Z,20.46
2018-04-16T16:29:40.913Z,18.91
2018-04-16T16:32:08.559Z,19.56
2018-04-16T16:34:36.011Z,19.36
2018-04-16T16:37:03.374Z,19.08
2018-04-16T16:39:31.251Z,19.08
2018-04-16T16:41:58.792Z,20.07
2018-04-16T16:44:26.244Z,19.87
2018-04-16T16:46:53.635Z,21.59
2018-04-16T16:49:21.042Z,23.69
2018-04-16T16:51:48.452Z,24.68
2018-04-16T16:54:15.892Z,24.88
2018-04-16T16:56:43.231Z,25.04
2018-04-16T16:59:10.628Z,27.10
2018-04-16T17:01:38.031Z,27.57
2018-04-16T17:04:05.421Z,27.58
2018-04-16T17:09:06.237Z,28.34
2018-04-16T17:11:33.644Z,28.51
2018-04-16T17:14:01.013Z,28.65
2018-04-16T17:16:28.416Z,29.08
2018-04-16T17:18:55.826Z,29.32
2018-04-16T17:21:23.223Z,29.76
2018-04-16T17:23:50.609Z,29.53
2018-04-16T17:26:18.022Z,29.77
2018-04-16T17:28:45.406Z,30.28
2018-04-16T17:31:19.004Z,30.18
2018-04-16T17:33:53.874Z,30.33
2018-04-16T17:36:21.572Z,30.65
2018-04-16T17:38:48.947Z,31.09
2018-04-16T17:41:16.608Z,31.17
2018-04-16T17:43:44.034Z,31.46
2018-04-16T17:46:11.395Z,31.39
2018-04-16T17:48:38.907Z,31.45
2018-04-16T17:51:06.285Z,31.01
2018-04-16T17:53:33.676Z,30.82
2018-04-16T17:56:01.064Z,30.97
2018-04-16T17:58:28.466Z,31.22
2018-04-16T18:00:55.841Z,30.89
2018-04-16T18:03:23.316Z,31.05
2018-04-16T18:05:50.738Z,31.26
2018-04-16T18:08:18.207Z,31.45
2018-04-16T18:10:45.609Z,31.51
2018-04-16T18:13:13.004Z,32.32
2018-04-16T18:15:40.421Z,31.72
2018-04-16T18:18:08.011Z,31.82
2018-04-16T18:20:35.393Z,32.71
2018-04-16T18:23:02.875Z,32.02
2018-04-16T18:25:30.258Z,32.71
2018-04-16T18:27:57.679Z,32.21
2018-04-16T18:30:25.085Z,32.39
2018-04-16T18:32:52.520Z,32.68
2018-04-16T18:35:19.975Z,34.00
2018-04-16T18:37:47.671Z,33.16
2018-04-16T18:40:15.056Z,33.78
2018-04-16T18:42:42.448Z,33.45
2018-04-16T18:45:09.848Z,33.99
2018-04-16T18:47:37.254Z,34.17
2018-04-16T18:50:04.665Z,34.55
2018-04-16T18:52:32.069Z,34.79
2018-04-16T18:54:59.940Z,34.93
2018-04-16T18:57:27.361Z,35.11
2018-04-16T18:59:54.766Z,34.82
2018-04-16T19:02:22.168Z,35.30
2018-04-16T19:04:49.707Z,35.86
2018-04-16T19:07:17.118Z,36.86
2018-04-16T19:09:44.549Z,36.81
2018-04-16T19:12:11.969Z,37.27
2018-04-16T19:14:39.388Z,37.57
2018-04-16T19:17:06.784Z,37.36
2018-04-16T19:19:34.163Z,37.07
2018-04-16T19:22:01.588Z,37.31
2018-04-16T19:24:29.125Z,36.66
2018-04-16T19:27:02.188Z,37.12
2018-04-16T19:29:29.666Z,36.91
2018-04-16T19:31:57.048Z,36.98
2018-04-16T19:34:30.057Z,37.21
2018-04-16T19:36:57.503Z,37.52
2018-04-16T19:39:24.970Z,37.25
2018-04-16T19:41:57.978Z,37.25
2018-04-16T19:44:25.455Z,37.11
2018-04-16T19:46:52.846Z,37.85
2018-04-16T19:49:25.832Z,38.42
2018-04-16T19:51:53.345Z,38.33
2018-04-16T19:54:21.001Z,39.02
2018-04-16T19:56:53.912Z,39.76
2018-04-16T19:59:21.304Z,39.45
2018-04-16T20:01:54.052Z,38.64
2018-04-16T20:04:21.520Z,38.97
2018-04-16T20:06:48.925Z,38.12
2018-04-16T20:09:16.331Z,38.99
2018-04-16T20:11:43.736Z,38.74
2018-04-16T20:14:11.793Z,39.02
2018-04-16T20:16:39.252Z,39.49
2018-04-16T20:19:06.751Z,40.13
2018-04-16T20:21:34.161Z,38.98
2018-04-16T20:24:01.819Z,39.34
2018-04-16T20:26:29.221Z,40.19
2018-04-16T20:28:56.611Z,40.43
2018-04-16T20:31:24.067Z,40.10
2018-04-16T20:33:51.510Z,40.19
2018-04-16T20:36:18.909Z,39.67
2018-04-16T20:38:46.327Z,40.07
2018-04-16T20:41:13.989Z,39.79
2018-04-16T20:43:41.657Z,40.10
2018-04-16T20:46:09.534Z,39.86
2018-04-16T20:48:37.932Z,39.93
2018-04-16T20:51:05.356Z,41.19
2018-04-16T20:53:32.749Z,42.05
2018-04-16T20:56:00.144Z,41.17
2018-04-16T20:58:27.598Z,40.69
2018-04-16T21:00:55.034Z,39.88
2018-04-16T21:03:22.442Z,40.03
2018-04-16T21:05:49.826Z,40.59
2018-04-16T21:08:17.305Z,41.41
2018-04-16T21:10:44.707Z,40.87
2018-04-16T21:13:12.094Z,40.60
2018-04-16T21:15:39.510Z,40.22
2018-04-16T21:18:06.887Z,41.53
2018-04-16T21:20:34.348Z,41.27
2018-04-16T21:23:01.752Z,41.79
2018-04-16T21:25:29.141Z,41.41
2018-04-16T21:27:56.552Z,41.71
2018-04-16T21:30:23.954Z,42.68
2018-04-16T21:32:51.335Z,41.81
2018-04-16T21:35:18.726Z,43.01
2018-04-16T21:37:46.115Z,44.00
2018-04-16T21:40:13.495Z,42.47
2018-04-16T21:42:40.931Z,44.04
2018-04-16T21:45:08.323Z,43.46
2018-04-16T21:47:35.735Z,43.00
2018-04-16T21:50:03.125Z,43.41
2018-04-16T21:52:30.520Z,44.29
2018-04-16T21:57:45.576Z,43.87
2018-04-16T22:00:13.007Z,44.91
2018-04-16T22:02:40.498Z,43.71
2018-04-16T22:05:07.855Z,44.50
2018-04-16T22:07:35.251Z,45.30
2018-04-16T22:10:02.639Z,43.99
2018-04-16T22:12:30.028Z,44.72
2018-04-16T22:14:57.429Z,45.20
2018-04-16T22:17:24.850Z,44.39
2018-04-16T22:19:52.272Z,44.34
2018-04-16T22:22:19.762Z,44.82
2018-04-16T22:24:47.184Z,45.38
2018-04-16T22:27:14.723Z,44.65
2018-04-16T22:29:42.117Z,45.38
2018-04-16T22:32:09.529Z,45.57
2018-04-16T22:34:37.026Z,45.71
2018-04-16T22:37:04.423Z,46.41
2018-04-16T22:39:31.816Z,45.30
2018-04-16T22:41:59.228Z,45.94
2018-04-16T22:44:26.695Z,46.16
2018-04-16T22:46:54.223Z,46.27
2018-04-16T22:49:21.717Z,46.70
2018-04-16T22:51:49.151Z,46.73
2018-04-16T22:54:16.555Z,46.88
2018-04-16T22:56:44.044Z,45.81
2018-04-16T22:59:11.432Z,46.30
2018-04-16T23:01:38.809Z,46.86
2018-04-16T23:04:06.207Z,45.96
2018-04-16T23:06:33.581Z,46.72
2018-04-16T23:09:00.986Z,46.20
2018-04-16T23:11:28.379Z,46.51
2018-04-16T23:13:55.770Z,45.99
2018-04-16T23:16:23.145Z,46.24
2018-04-16T23:18:50.520Z,46.18
2018-04-16T23:21:17.916Z,48.03
2018-04-16T23:23:45.303Z,48.32
2018-04-16T23:26:12.687Z,48.12
2018-04-16T23:28:40.087Z,47.68
2018-04-16T23:31:07.476Z,48.24
2018-04-16T23:33:34.851Z,47.67
2018-04-16T23:36:02.480Z,47.52
2018-04-16T23:38:29.860Z,47.36
2018-04-16T23:40:57.259Z,47.94
2018-04-16T23:43:24.651Z,48.82
2018-04-16T23:45:52.028Z,48.28
2018-04-16T23:48:19.616Z,50.03
2018-04-16T23:50:46.991Z,48.68
2018-04-16T23:53:14.445Z,48.96
2018-04-16T23:55:41.939Z,49.85
2018-04-16T23:58:09.599Z,48.79
